createdAt,value
2022-11-12T00:01:09.110Z,102160.81
2022-11-12T00:03:35.803Z,102180.53
2022-11-12T00:06:02.483Z,102168.84
2022-11-12T00:08:30.786Z,102143.81
2022-11-12T00:10:57.543Z,102185.75
2022-11-12T00:13:24.249Z,102189.53
2022-11-12T00:16:02.093Z,102184.31
2022-11-12T00:18:29.002Z,102158.25
2022-11-12T00:20:55.925Z,102176.25
2022-11-12T00:23:22.594Z,102120.22
2022-11-12T00:25:58.852Z,102145.13
2022-11-12T00:28:25.862Z,102178.97
2022-11-12T00:30:52.700Z,102154.00
2022-11-12T00:33:19.320Z,102112.16
2022-11-12T00:35:46.038Z,102142.56
2022-11-12T00:38:12.688Z,102160.28
2022-11-12T00:40:39.416Z,102166.56
2022-11-12T00:43:07.480Z,102191.44
2022-11-12T00:45:34.149Z,102132.66
2022-11-12T00:48:00.837Z,102193.19
2022-11-12T00:50:27.519Z,102170.97
2022-11-12T00:52:54.336Z,102167.94
2022-11-12T00:55:21.271Z,102135.97
2022-11-12T00:57:48.043Z,102162.56
2022-11-12T01:00:18.951Z,102135.25
2022-11-12T01:02:50.669Z,102093.50
2022-11-12T01:05:18.959Z,102131.78
2022-11-12T01:07:45.736Z,102160.94
2022-11-12T01:10:12.636Z,102144.72
2022-11-12T01:12:39.368Z,102167.41
2022-11-12T01:15:07.805Z,102106.19
2022-11-12T01:17:35.948Z,102159.31
2022-11-12T01:20:02.837Z,102149.41
2022-11-12T01:22:29.493Z,102148.44
2022-11-12T01:24:56.142Z,102083.56
2022-11-12T01:27:22.786Z,102105.13
2022-11-12T01:29:49.429Z,102101.50
2022-11-12T01:32:22.297Z,102129.69
2022-11-12T01:34:50.677Z,102138.50
2022-11-12T01:37:17.371Z,102065.03
2022-11-12T01:39:44.060Z,102109.03
2022-11-12T01:42:11.951Z,102086.03
2022-11-12T01:44:42.143Z,102136.00
2022-11-12T01:47:14.523Z,102095.06
2022-11-12T01:49:52.406Z,102127.00
2022-11-12T01:52:30.228Z,102071.78
2022-11-12T01:55:01.825Z,102064.88
2022-11-12T01:57:52.011Z,102123.13
2022-11-12T02:00:19.104Z,102121.56
2022-11-12T02:02:51.906Z,102115.81
2022-11-12T02:05:20.499Z,102111.84
2022-11-12T02:07:49.593Z,102073.41
2022-11-12T02:10:16.743Z,102110.13
2022-11-12T02:12:44.085Z,102119.25
2022-11-12T02:15:10.986Z,102059.59
2022-11-12T02:17:52.975Z,102101.31
2022-11-12T02:20:20.138Z,102117.34
2022-11-12T02:22:48.140Z,102120.56
2022-11-12T02:25:18.716Z,102084.41
2022-11-12T02:27:45.972Z,102071.47
2022-11-12T02:30:13.089Z,102101.81
2022-11-12T02:32:39.792Z,102088.72
2022-11-12T02:35:07.537Z,102082.66
2022-11-12T02:37:34.299Z,102046.94
2022-11-12T02:40:02.445Z,102063.22
2022-11-12T02:42:29.087Z,102082.88
2022-11-12T02:44:55.853Z,102078.50
2022-11-12T02:47:22.528Z,102070.91
2022-11-12T02:49:49.186Z,102085.53
2022-11-12T02:52:15.808Z,102046.56
2022-11-12T02:54:42.500Z,102041.03
2022-11-12T02:57:10.705Z,102032.78
2022-11-12T02:59:37.420Z,102056.06
2022-11-12T03:02:04.099Z,102050.78
2022-11-12T03:04:30.758Z,102052.31
2022-11-12T03:06:57.459Z,102045.50
2022-11-12T03:09:24.208Z,102064.28
2022-11-12T03:11:50.852Z,102059.72
2022-11-12T03:14:19.037Z,102073.88
2022-11-12T03:16:45.733Z,102010.56
2022-11-12T03:19:12.413Z,102072.59
2022-11-12T03:21:39.132Z,102075.25
2022-11-12T03:24:06.167Z,102043.97
2022-11-12T03:26:35.829Z,102072.59
2022-11-12T03:29:03.038Z,102058.69
2022-11-12T03:31:31.146Z,102065.53
2022-11-12T03:33:57.819Z,102070.38
2022-11-12T03:36:24.543Z,102032.56
2022-11-12T03:38:51.251Z,102024.22
2022-11-12T03:41:17.878Z,102039.56
2022-11-12T03:43:44.516Z,102017.22
2022-11-12T03:46:11.171Z,102008.84
2022-11-12T03:48:39.296Z,102083.44
2022-11-12T03:51:06.189Z,102086.31
2022-11-12T03:53:32.913Z,102019.53
2022-11-12T03:55:59.631Z,102003.91
2022-11-12T03:58:26.637Z,102023.34
2022-11-12T04:00:53.575Z,102006.25
2022-11-12T04:03:20.320Z,102000.44
2022-11-12T04:05:48.396Z,102031.75
2022-11-12T04:08:16.986Z,102033.59
2022-11-12T04:10:43.654Z,102009.22
2022-11-12T04:13:10.369Z,102041.38
2022-11-12T04:15:37.256Z,102006.91
2022-11-12T04:18:04.147Z,101992.72
2022-11-12T04:20:31.175Z,102048.34
2022-11-12T04:22:59.323Z,101994.94
2022-11-12T04:25:26.090Z,101978.25
2022-11-12T04:27:52.825Z,101963.13
2022-11-12T04:30:19.579Z,102013.84
2022-11-12T04:32:48.796Z,101965.75
2022-11-12T04:35:15.986Z,101960.03
2022-11-12T04:37:42.760Z,101967.03
2022-11-12T04:40:12.723Z,101987.03
2022-11-12T04:42:41.148Z,101957.31
2022-11-12T04:45:08.905Z,101942.81
2022-11-12T04:47:38.103Z,101923.44
2022-11-12T04:50:07.016Z,101955.59
2022-11-12T04:52:34.145Z,101945.59
2022-11-12T04:55:00.889Z,101952.03
2022-11-12T04:57:29.061Z,101936.53
2022-11-12T04:59:55.765Z,101976.72
2022-11-12T05:02:22.736Z,101924.31
2022-11-12T05:04:49.451Z,101954.91
2022-11-12T05:07:16.928Z,101921.91
2022-11-12T05:09:44.241Z,101908.78
2022-11-12T05:12:11.161Z,101874.66
2022-11-12T05:14:39.275Z,101896.47
2022-11-12T05:17:06.164Z,101884.31
2022-11-12T05:19:32.997Z,101933.88
2022-11-12T05:21:59.720Z,101952.41
2022-11-12T05:24:41.001Z,101872.81
2022-11-12T05:27:10.720Z,101947.09
2022-11-12T05:29:39.249Z,101940.09
2022-11-12T05:32:07.333Z,101954.44
2022-11-12T05:34:34.397Z,101952.66
2022-11-12T05:37:03.256Z,101882.38
2022-11-12T05:39:30.101Z,101942.50
2022-11-12T05:42:12.461Z,101926.13
2022-11-12T05:44:40.960Z,101943.91
2022-11-12T05:47:07.656Z,101966.03
2022-11-12T05:49:34.319Z,101928.75
2022-11-12T05:52:00.976Z,101924.44
2022-11-12T05:54:27.836Z,101947.06
2022-11-12T05:56:54.501Z,101962.13
2022-11-12T05:59:21.165Z,101922.03
2022-11-12T06:01:49.303Z,101942.59
2022-11-12T06:04:16.654Z,101926.44
2022-11-12T06:06:43.822Z,101970.88
2022-11-12T06:09:10.903Z,101962.13
2022-11-12T06:11:38.330Z,101939.91
2022-11-12T06:14:05.767Z,101953.28
2022-11-12T06:16:32.821Z,101987.75
2022-11-12T06:19:01.003Z,101961.63
2022-11-12T06:21:27.730Z,101990.66
2022-11-12T06:23:57.066Z,101965.47
2022-11-12T06:26:25.394Z,101959.06
2022-11-12T06:28:52.553Z,101966.09
2022-11-12T06:31:19.959Z,101960.97
2022-11-12T06:33:47.080Z,101993.31
2022-11-12T06:36:17.198Z,101976.63
2022-11-12T06:38:43.957Z,101965.91
2022-11-12T06:41:12.815Z,102003.97
2022-11-12T06:43:40.515Z,101982.31
2022-11-12T06:46:10.838Z,101990.06
2022-11-12T06:48:37.920Z,101957.88
2022-11-12T06:51:10.006Z,102017.44
2022-11-12T06:53:38.326Z,101943.41
2022-11-12T06:56:07.088Z,101993.00
2022-11-12T06:58:34.162Z,102002.28
2022-11-12T07:01:11.012Z,102007.97
2022-11-12T07:03:38.653Z,101975.53
2022-11-12T07:06:07.505Z,102012.53
2022-11-12T07:08:34.321Z,101998.78
2022-11-12T07:11:02.471Z,101980.38
2022-11-12T07:13:30.706Z,102013.41
2022-11-12T07:15:57.874Z,101984.84
2022-11-12T07:18:25.057Z,102017.94
2022-11-12T07:20:52.081Z,101977.34
2022-11-12T07:23:18.934Z,101963.59
2022-11-12T07:25:45.641Z,101938.41
2022-11-12T07:28:13.719Z,101942.25
2022-11-12T07:30:40.386Z,101978.31
2022-11-12T07:33:07.101Z,101997.91
2022-11-12T07:35:33.794Z,102004.44
2022-11-12T07:38:00.454Z,101978.81
2022-11-12T07:40:27.251Z,102017.09
2022-11-12T07:42:54.034Z,102013.56
2022-11-12T07:45:22.171Z,101965.78
2022-11-12T07:47:48.838Z,101963.94
2022-11-12T07:50:15.643Z,101961.25
2022-11-12T07:52:42.331Z,101974.50
2022-11-12T07:55:09.511Z,102021.22
2022-11-12T07:57:36.388Z,102025.91
2022-11-12T08:00:14.639Z,101994.63
2022-11-12T08:02:42.725Z,102020.84
2022-11-12T08:05:16.355Z,102009.31
2022-11-12T08:07:45.950Z,101968.88
2022-11-12T08:10:12.730Z,102040.91
2022-11-12T08:12:39.367Z,101983.91
2022-11-12T08:15:06.540Z,102043.09
2022-11-12T08:17:38.004Z,102050.75
2022-11-12T08:20:07.920Z,102059.47
2022-11-12T08:22:34.618Z,102018.69
2022-11-12T08:25:01.737Z,102008.44
2022-11-12T08:27:28.831Z,102052.75
2022-11-12T08:29:55.589Z,102004.44
2022-11-12T08:32:22.258Z,102013.16
2022-11-12T08:35:01.306Z,102036.06
2022-11-12T08:37:31.456Z,101991.31
2022-11-12T08:43:27.294Z,102026.16
2022-11-12T08:45:54.284Z,102060.50
2022-11-12T08:48:21.423Z,102032.34
2022-11-12T08:50:48.649Z,101992.72
2022-11-12T08:53:25.190Z,101983.13
2022-11-12T08:55:53.490Z,102038.09
2022-11-12T08:58:20.310Z,102037.94
2022-11-12T09:04:16.393Z,102004.34
2022-11-12T09:10:18.765Z,102014.28
2022-11-12T09:12:50.937Z,102008.19
2022-11-12T09:18:06.131Z,102052.22
2022-11-12T09:24:00.744Z,102079.16
2022-11-12T09:26:29.390Z,102055.47
2022-11-12T09:29:02.212Z,102050.06
2022-11-12T09:31:31.025Z,102063.31
2022-11-12T09:33:59.839Z,102045.53
2022-11-12T09:36:42.822Z,102035.63
2022-11-12T09:39:18.540Z,102103.56
2022-11-12T09:42:14.002Z,102101.66
2022-11-12T09:44:57.610Z,102054.56
2022-11-12T09:47:29.404Z,102078.50
2022-11-12T09:50:02.636Z,102104.97
2022-11-12T09:52:30.454Z,102083.53
2022-11-12T09:55:06.162Z,102095.72
2022-11-12T09:57:36.423Z,102092.91
2022-11-12T10:00:14.675Z,102082.28
2022-11-12T10:02:55.215Z,102095.31
2022-11-12T10:05:28.923Z,102044.50
2022-11-12T10:08:29.063Z,102082.09
2022-11-12T10:11:07.733Z,102055.56
2022-11-12T10:13:47.549Z,102049.22
2022-11-12T10:16:57.658Z,102083.72
2022-11-12T10:19:38.151Z,102015.75
2022-11-12T10:22:18.628Z,102054.88
2022-11-12T10:24:45.607Z,102040.41
2022-11-12T10:27:16.243Z,102064.84
2022-11-12T10:29:55.663Z,102058.44
2022-11-12T10:32:22.159Z,102073.19
2022-11-12T10:34:51.937Z,102025.75
2022-11-12T10:37:27.187Z,102051.88
2022-11-12T10:39:56.842Z,102040.44
2022-11-12T10:46:21.201Z,102031.22
2022-11-12T10:49:02.809Z,101974.50
2022-11-12T10:51:44.653Z,101950.97
2022-11-12T10:57:50.040Z,102011.56
2022-11-12T11:00:26.217Z,101944.16
2022-11-12T11:06:27.018Z,101939.91
2022-11-12T11:09:25.713Z,101991.69
2022-11-12T11:11:54.397Z,101918.28
2022-11-12T11:14:27.695Z,101931.56
2022-11-12T11:16:58.142Z,101991.06
2022-11-12T11:19:41.353Z,101914.50
2022-11-12T11:22:46.153Z,101970.78
2022-11-12T11:25:20.795Z,101902.03
2022-11-12T11:28:01.536Z,101902.16
2022-11-12T11:30:28.397Z,101939.06
2022-11-12T11:33:38.474Z,101957.72
2022-11-12T11:36:17.477Z,101937.75
2022-11-12T11:38:59.516Z,101962.66
2022-11-12T11:42:06.703Z,101935.97
2022-11-12T11:44:45.721Z,101903.16
2022-11-12T11:47:38.901Z,101887.22
2022-11-12T11:50:20.128Z,101940.78
2022-11-12T11:53:14.746Z,101956.25
2022-11-12T11:55:53.603Z,101934.59
2022-11-12T11:58:45.393Z,101940.06
2022-11-12T12:01:21.145Z,101946.34
2022-11-12T12:04:05.268Z,101928.94
2022-11-12T12:06:39.144Z,101968.97
2022-11-12T12:09:23.590Z,101898.47
2022-11-12T12:12:02.091Z,101955.22
2022-11-12T12:14:48.001Z,101959.19
2022-11-12T12:17:31.843Z,101953.38
2022-11-12T12:20:08.260Z,101879.13
2022-11-12T12:22:41.167Z,101870.31
2022-11-12T12:25:15.609Z,101874.88
2022-11-12T12:27:54.081Z,101873.34
2022-11-12T12:30:23.480Z,101909.44
2022-11-12T12:32:56.382Z,101872.25
2022-11-12T12:35:28.028Z,101874.91
2022-11-12T12:38:06.577Z,101910.56
2022-11-12T12:40:39.370Z,101893.19
2022-11-12T12:43:15.004Z,101869.88
2022-11-12T12:45:43.500Z,101940.38
2022-11-12T12:48:17.065Z,101925.78
2022-11-12T12:50:46.371Z,101861.94
2022-11-12T12:53:33.212Z,101902.38
2022-11-12T12:56:02.423Z,101861.94
2022-11-12T12:58:42.811Z,101932.69
2022-11-12T13:01:27.352Z,101920.19
2022-11-12T13:03:57.797Z,101901.16
2022-11-12T13:06:28.381Z,101901.19
2022-11-12T13:09:00.637Z,101856.44
2022-11-12T13:11:50.738Z,101913.34
2022-11-12T13:15:08.546Z,101854.56
2022-11-12T13:17:49.882Z,101854.53
2022-11-12T13:20:35.943Z,101884.13
2022-11-12T13:23:29.203Z,101865.56
2022-11-12T13:26:33.251Z,101840.50
2022-11-12T13:29:42.729Z,101913.16
2022-11-12T13:35:39.486Z,101872.25
2022-11-12T13:38:16.926Z,101883.50
2022-11-12T13:40:49.926Z,101865.53
2022-11-12T13:43:26.778Z,101887.41
2022-11-12T13:52:06.537Z,101871.44
2022-11-12T13:55:02.892Z,101930.53
2022-11-12T13:58:02.101Z,101927.34
2022-11-12T14:00:30.178Z,101891.69
2022-11-12T14:03:00.693Z,101863.69
2022-11-12T14:05:31.980Z,101852.88
2022-11-12T14:08:14.145Z,101858.66
2022-11-12T14:10:57.923Z,101923.59
2022-11-12T14:13:50.291Z,101920.66
2022-11-12T14:16:31.211Z,101905.94
2022-11-12T14:19:26.122Z,101859.16
2022-11-12T14:22:13.146Z,101901.03
2022-11-12T14:24:41.210Z,101899.09
2022-11-12T14:27:34.991Z,101854.75
2022-11-12T14:30:13.596Z,101845.78
2022-11-12T14:32:43.079Z,101842.84
2022-11-12T14:35:36.809Z,101925.81
2022-11-12T14:38:18.004Z,101853.53
2022-11-12T14:40:48.704Z,101851.66
2022-11-12T14:43:27.406Z,101857.97
2022-11-12T14:46:01.629Z,101925.38
2022-11-12T14:48:29.567Z,101929.78
2022-11-12T14:51:02.906Z,101923.75
2022-11-12T14:53:34.824Z,101897.75
2022-11-12T14:56:08.576Z,101861.63
2022-11-12T14:58:36.002Z,101856.19
2022-11-12T15:02:08.825Z,101857.94
2022-11-12T15:04:39.143Z,101923.22
2022-11-12T15:07:23.021Z,101853.91
2022-11-12T15:09:51.873Z,101860.94
2022-11-12T15:12:22.413Z,101863.25
2022-11-12T15:14:52.414Z,101898.91
2022-11-12T15:17:29.977Z,101853.06
2022-11-12T15:20:06.379Z,101855.91
2022-11-12T15:22:34.557Z,101889.88
2022-11-12T15:25:23.981Z,101883.78
2022-11-12T15:28:14.581Z,101862.66
2022-11-12T15:30:41.672Z,101881.66
2022-11-12T15:33:15.991Z,101861.94
2022-11-12T15:35:44.743Z,101868.44
2022-11-12T15:38:25.891Z,101869.59
2022-11-12T15:40:57.519Z,101867.47
2022-11-12T15:43:28.197Z,101868.91
2022-11-12T15:45:56.461Z,101910.50
2022-11-12T15:48:23.709Z,101866.16
2022-11-12T15:50:50.428Z,101878.56
2022-11-12T15:53:17.673Z,101931.34
2022-11-12T15:55:45.947Z,101939.50
2022-11-12T15:58:18.575Z,101870.84
2022-11-12T16:00:45.798Z,101894.56
2022-11-12T16:03:14.844Z,101903.81
2022-11-12T16:05:41.820Z,101959.13
2022-11-12T16:08:18.796Z,101945.03
2022-11-12T16:10:46.955Z,101868.81
2022-11-12T16:13:19.045Z,101945.50
2022-11-12T16:15:50.249Z,101910.97
2022-11-12T16:18:19.154Z,101886.38
2022-11-12T16:20:46.661Z,101895.94
2022-11-12T16:23:13.820Z,101890.50
2022-11-12T16:25:47.126Z,101940.06
2022-11-12T16:28:18.713Z,101907.97
2022-11-12T16:30:56.246Z,101888.50
2022-11-12T16:33:23.782Z,101880.88
2022-11-12T16:36:01.599Z,101880.91
2022-11-12T16:38:28.753Z,101884.47
2022-11-12T16:40:57.869Z,101885.09
2022-11-12T16:43:31.254Z,101898.41
2022-11-12T16:46:15.057Z,101930.78
2022-11-12T16:48:41.808Z,101926.72
2022-11-12T16:51:50.037Z,101875.53
2022-11-12T16:54:23.010Z,101893.84
2022-11-12T16:56:52.050Z,101908.06
2022-11-12T16:59:20.568Z,101917.00
2022-11-12T17:01:48.755Z,101882.28
2022-11-12T17:04:16.454Z,101881.16
2022-11-12T17:06:43.828Z,101931.66
2022-11-12T17:09:12.612Z,101897.53
2022-11-12T17:11:39.905Z,101966.47
2022-11-12T17:14:37.415Z,101960.81
2022-11-12T17:17:11.741Z,101906.41
2022-11-12T17:19:47.396Z,101966.94
2022-11-12T17:22:17.461Z,101973.59
2022-11-12T17:24:45.587Z,101910.56
2022-11-12T17:27:17.444Z,101905.44
2022-11-12T17:29:47.726Z,101931.22
2022-11-12T17:35:47.843Z,101969.56
2022-11-12T17:41:43.104Z,101935.09
2022-11-12T17:44:16.626Z,101920.81
2022-11-12T17:46:47.303Z,101966.22
2022-11-12T17:49:30.281Z,101926.34
2022-11-12T17:52:10.610Z,101908.91
2022-11-12T17:54:37.958Z,101892.34
2022-11-12T17:57:09.173Z,101894.56
2022-11-12T17:59:39.247Z,101967.47
2022-11-12T18:02:16.386Z,101885.94
2022-11-12T18:04:46.821Z,101876.78
2022-11-12T18:07:16.287Z,101909.16
2022-11-12T18:10:08.035Z,101877.81
2022-11-12T18:12:57.664Z,101951.75
2022-11-12T18:15:34.360Z,101888.16
2022-11-12T18:18:39.427Z,101960.34
2022-11-12T18:21:23.466Z,101953.38
2022-11-12T18:24:16.678Z,101965.03
2022-11-12T18:26:45.910Z,101889.81
2022-11-12T18:29:20.146Z,101899.81
2022-11-12T18:32:23.191Z,101968.91
2022-11-12T18:34:56.603Z,101903.19
2022-11-12T18:37:49.496Z,101973.63
2022-11-12T18:40:23.882Z,101908.78
2022-11-12T18:42:54.022Z,101907.41
2022-11-12T18:45:29.535Z,101908.59
2022-11-12T18:48:05.075Z,101972.63
2022-11-12T18:50:47.182Z,101898.56
2022-11-12T18:53:16.032Z,101972.41
2022-11-12T18:55:43.442Z,101907.09
2022-11-12T18:58:10.554Z,101899.66
2022-11-12T19:00:49.889Z,101894.84
2022-11-12T19:03:17.130Z,101909.66
2022-11-12T19:05:44.752Z,101923.91
2022-11-12T19:08:11.988Z,101904.63
2022-11-12T19:10:43.183Z,101910.88
2022-11-12T19:13:12.970Z,101930.69
2022-11-12T19:15:45.763Z,101883.06
2022-11-12T19:18:20.031Z,101894.28
2022-11-12T19:21:01.357Z,101902.97
2022-11-12T19:23:41.975Z,101979.81
2022-11-12T19:26:20.067Z,101909.00
2022-11-12T19:28:51.264Z,101984.94
2022-11-12T19:31:30.147Z,101965.38
2022-11-12T19:33:57.020Z,101903.94
2022-11-12T19:36:28.286Z,101904.53
2022-11-12T19:39:01.199Z,101896.66
2022-11-12T19:41:36.653Z,101916.53
2022-11-12T19:44:19.918Z,101932.97
2022-11-12T19:47:01.445Z,101981.75
2022-11-12T19:49:59.290Z,101978.66
2022-11-12T19:52:33.168Z,101905.28
2022-11-12T19:55:03.874Z,101954.69
2022-11-12T19:57:39.004Z,101985.75
2022-11-12T20:00:10.123Z,101925.16
2022-11-12T20:02:42.476Z,101986.53
2022-11-12T20:05:09.587Z,101961.41
2022-11-12T20:07:38.587Z,102002.31
2022-11-12T20:10:06.817Z,101982.88
2022-11-12T20:12:42.600Z,101951.81
2022-11-12T20:15:12.242Z,101928.16
2022-11-12T20:17:44.671Z,101996.66
2022-11-12T20:20:12.401Z,101966.97
2022-11-12T20:22:39.150Z,101921.75
2022-11-12T20:25:06.518Z,101938.22
2022-11-12T20:27:33.574Z,101931.16
2022-11-12T20:30:01.894Z,101940.38
2022-11-12T20:32:28.892Z,101928.72
2022-11-12T20:34:56.843Z,101988.44
2022-11-12T20:37:23.781Z,101949.28
2022-11-12T20:39:50.723Z,101929.78
2022-11-12T20:42:17.616Z,101920.25
2022-11-12T20:44:44.427Z,101937.47
2022-11-12T20:47:12.776Z,101980.66
2022-11-12T20:49:39.784Z,101930.75
2022-11-12T20:52:09.504Z,101962.31
2022-11-12T20:54:45.420Z,101993.03
2022-11-12T20:57:14.859Z,101956.91
2022-11-12T20:59:43.620Z,101924.84
2022-11-12T21:02:14.805Z,101993.03
2022-11-12T21:08:39.825Z,101994.03
2022-11-12T21:11:09.215Z,101922.78
2022-11-12T21:13:37.687Z,101995.81
2022-11-12T21:16:08.761Z,101933.97
2022-11-12T21:18:38.128Z,101965.34
2022-11-12T21:21:08.044Z,101946.13
2022-11-12T21:23:36.914Z,101917.81
2022-11-12T21:26:06.639Z,101926.88
2022-11-12T21:28:35.064Z,101939.13
2022-11-12T21:31:04.533Z,101926.69
2022-11-12T21:33:32.581Z,101912.06
2022-11-12T21:36:05.138Z,101929.31
2022-11-12T21:38:37.566Z,101947.91
2022-11-12T21:41:06.943Z,101946.28
2022-11-12T21:43:36.546Z,101945.25
2022-11-12T21:49:06.897Z,101975.56
2022-11-12T21:51:37.930Z,101941.00
2022-11-12T21:54:08.743Z,101941.63
2022-11-12T21:56:36.234Z,102013.03
2022-11-12T21:59:09.746Z,101944.63
2022-11-12T22:01:37.722Z,101947.91
2022-11-12T22:04:07.666Z,101944.97
2022-11-12T22:10:07.839Z,102000.13
2022-11-12T22:12:38.339Z,101990.59
2022-11-12T22:15:06.566Z,101991.97
2022-11-12T22:21:06.584Z,101928.88
2022-11-12T22:23:34.582Z,101921.34
2022-11-12T22:26:07.707Z,101902.66
2022-11-12T22:28:35.068Z,101924.09
2022-11-12T22:31:06.170Z,101929.56
2022-11-12T22:33:34.670Z,101937.19
2022-11-12T22:36:04.997Z,101918.59
2022-11-12T22:38:39.950Z,101937.81
2022-11-12T22:41:15.393Z,101990.47
2022-11-12T22:43:51.040Z,101923.53
2022-11-12T22:46:21.017Z,101958.06
2022-11-12T22:48:47.893Z,101943.66
2022-11-12T22:51:17.171Z,101949.31
2022-11-12T22:53:44.894Z,101979.22
2022-11-12T22:56:16.280Z,101999.59
2022-11-12T22:58:45.626Z,101931.84
2022-11-12T23:01:21.202Z,102005.25
2022-11-12T23:04:00.498Z,101930.28
2022-11-12T23:06:33.791Z,101949.47
2022-11-12T23:09:41.861Z,101999.59
2022-11-12T23:12:16.810Z,101952.44
2022-11-12T23:14:44.235Z,101992.56
2022-11-12T23:17:11.863Z,101988.38
2022-11-12T23:19:42.374Z,101928.69
2022-11-12T23:22:12.716Z,101931.22
2022-11-12T23:24:53.040Z,101926.63
2022-11-12T23:27:21.306Z,101953.38
2022-11-12T23:29:48.152Z,101920.94
2022-11-12T23:32:15.034Z,101940.47
2022-11-12T23:34:41.911Z,101909.19
2022-11-12T23:37:08.669Z,101935.75
2022-11-12T23:39:35.620Z,101983.84
2022-11-12T23:42:02.751Z,101980.34
2022-11-12T23:44:31.148Z,101924.81
2022-11-12T23:46:58.035Z,101908.84
2022-11-12T23:49:24.905Z,101918.81
2022-11-12T23:51:51.912Z,101896.09
2022-11-12T23:54:19.157Z,101900.75
2022-11-12T23:56:46.400Z,101910.63
2022-11-12T23:59:13.634Z,101928.16
